createdAt,value
2023-07-22T00:01:52.730Z,97011.45
2023-07-22T00:04:20.233Z,97004.46
2023-07-22T00:06:47.800Z,96991.81
2023-07-22T00:09:15.627Z,96990.86
2023-07-22T00:11:43.381Z,97002.73
2023-07-22T00:14:11.054Z,97005.29
2023-07-22T00:16:38.646Z,97002.17
2023-07-22T00:19:07.736Z,97018.75
2023-07-22T00:21:35.759Z,97022.47
2023-07-22T00:24:05.162Z,97025.78
2023-07-22T00:26:33.085Z,97034.94
2023-07-22T00:29:00.680Z,97022.67
2023-07-22T00:31:28.337Z,97020.54
2023-07-22T00:33:56.083Z,97012.55
2023-07-22T00:36:23.824Z,97009.05
2023-07-22T00:38:53.303Z,96995.02
2023-07-22T00:41:20.811Z,96990.36
2023-07-22T00:43:48.255Z,96979.23
2023-07-22T00:46:16.169Z,96982.36
2023-07-22T00:48:43.661Z,96973.59
2023-07-22T00:51:11.339Z,96967.96
2023-07-22T00:53:39.328Z,96961.92
2023-07-22T00:56:07.033Z,96960.75
2023-07-22T00:58:35.279Z,96969.34
2023-07-22T01:01:03.105Z,96956.08
2023-07-22T01:03:30.582Z,96944.22
2023-07-22T01:06:00.982Z,96958.44
2023-07-22T01:08:29.395Z,96962.13
2023-07-22T01:10:57.245Z,96970.12
2023-07-22T01:13:24.955Z,96973.44
2023-07-22T01:15:53.124Z,96975.17
2023-07-22T01:18:21.933Z,96962.53
2023-07-22T01:20:49.746Z,96972.26
2023-07-22T01:23:17.532Z,96975.16
2023-07-22T01:25:45.594Z,96981.20
2023-07-22T01:28:13.376Z,96982.19
2023-07-22T01:30:41.310Z,96976.73
2023-07-22T01:33:09.564Z,96969.50
2023-07-22T01:35:37.211Z,96960.53
2023-07-22T01:38:05.031Z,96966.19
2023-07-22T01:40:32.624Z,96973.98
2023-07-22T01:43:00.382Z,96962.86
2023-07-22T01:45:27.998Z,96959.34
2023-07-22T01:47:55.876Z,96955.66
2023-07-22T01:50:23.917Z,96945.53
2023-07-22T01:52:51.730Z,96950.22
2023-07-22T01:55:19.468Z,96947.09
2023-07-22T01:57:46.936Z,96935.82
2023-07-22T02:00:15.616Z,96942.64
2023-07-22T02:02:43.655Z,96935.42
2023-07-22T02:05:11.864Z,96929.78
2023-07-22T02:07:40.408Z,96940.89
2023-07-22T02:10:10.068Z,96940.31
2023-07-22T02:12:38.021Z,96940.72
2023-07-22T02:15:07.204Z,96942.08
2023-07-22T02:17:35.107Z,96945.00
2023-07-22T02:20:04.878Z,96952.19
2023-07-22T02:22:32.440Z,96946.38
2023-07-22T02:25:00.271Z,96954.56
2023-07-22T02:27:28.157Z,96957.09
2023-07-22T02:29:55.730Z,96957.09
2023-07-22T02:32:23.504Z,96959.01
2023-07-22T02:34:51.229Z,96962.13
2023-07-22T02:37:18.853Z,96958.63
2023-07-22T02:39:46.477Z,96956.30
2023-07-22T02:42:14.035Z,96962.53
2023-07-22T02:44:41.678Z,96957.67
2023-07-22T02:47:09.441Z,96972.85
2023-07-22T02:49:36.907Z,96987.64
2023-07-22T02:52:05.241Z,96987.45
2023-07-22T02:54:35.192Z,96993.49
2023-07-22T02:57:04.199Z,96998.36
2023-07-22T02:59:32.729Z,96993.09
2023-07-22T03:02:00.507Z,96983.17
2023-07-22T03:04:28.163Z,96981.63
2023-07-22T03:06:55.812Z,96975.95
2023-07-22T03:09:23.328Z,96978.11
2023-07-22T03:11:51.189Z,96977.89
2023-07-22T03:14:21.912Z,96982.37
2023-07-22T03:16:49.618Z,96992.88
2023-07-22T03:19:17.274Z,96993.66
2023-07-22T03:21:45.103Z,96986.06
2023-07-22T03:24:12.966Z,96982.56
2023-07-22T03:26:40.801Z,96992.50
2023-07-22T03:29:08.651Z,96995.81
2023-07-22T03:31:36.755Z,96996.58
2023-07-22T03:34:04.352Z,96999.30
2023-07-22T03:36:35.196Z,97001.44
2023-07-22T03:39:03.680Z,97009.62
2023-07-22T03:41:31.355Z,97002.40
2023-07-22T03:43:58.975Z,97007.66
2023-07-22T03:46:27.037Z,96999.88
2023-07-22T03:48:55.368Z,96996.13
2023-07-22T03:51:23.040Z,96996.11
2023-07-22T03:53:50.776Z,97002.34
2023-07-22T03:56:18.508Z,97001.98
2023-07-22T03:58:46.441Z,97004.37
2023-07-22T04:01:14.420Z,97012.32
2023-07-22T04:03:42.199Z,97007.27
2023-07-22T04:06:10.159Z,97007.63
2023-07-22T04:08:38.049Z,97007.67
2023-07-22T04:11:05.597Z,97011.05
2023-07-22T04:13:33.367Z,97024.06
2023-07-22T04:16:01.270Z,97025.41
2023-07-22T04:18:31.755Z,97022.30
2023-07-22T04:20:59.479Z,97021.31
2023-07-22T04:23:28.130Z,97023.77
2023-07-22T04:25:55.997Z,97011.73
2023-07-22T04:28:25.417Z,97016.97
2023-07-22T04:30:59.525Z,97018.02
2023-07-22T04:33:28.617Z,97022.54
2023-07-22T04:35:59.817Z,97026.84
2023-07-22T04:38:27.871Z,97033.06
2023-07-22T04:40:55.539Z,97037.16
2023-07-22T04:43:23.509Z,97043.11
2023-07-22T04:45:51.472Z,97043.09
2023-07-22T04:48:21.558Z,97040.34
2023-07-22T04:50:49.069Z,97040.62
2023-07-22T04:53:18.576Z,97041.45
2023-07-22T04:55:46.788Z,97037.06
2023-07-22T04:58:14.538Z,97032.80
2023-07-22T05:00:43.530Z,97030.17
2023-07-22T05:03:11.614Z,97033.67
2023-07-22T05:05:39.644Z,97033.04
2023-07-22T05:08:08.805Z,97030.09
2023-07-22T05:10:38.421Z,97039.66
2023-07-22T05:13:06.222Z,97046.02
2023-07-22T05:15:33.787Z,97054.41
2023-07-22T05:18:01.877Z,97051.33
2023-07-22T05:20:29.729Z,97057.31
2023-07-22T05:22:57.478Z,97050.41
2023-07-22T05:25:25.482Z,97051.39
2023-07-22T05:27:53.052Z,97065.02
2023-07-22T05:30:34.120Z,97066.71
2023-07-22T05:32:54.725Z,97071.91
2023-07-22T05:35:22.332Z,97073.80
2023-07-22T05:37:49.972Z,97075.52
2023-07-22T05:40:17.758Z,97076.79
2023-07-22T05:42:45.355Z,97069.60
2023-07-22T05:45:14.559Z,97070.95
2023-07-22T05:47:42.040Z,97070.08
2023-07-22T05:50:10.047Z,97064.67
2023-07-22T05:52:37.962Z,97060.25
2023-07-22T05:55:06.174Z,97062.98
2023-07-22T05:57:34.059Z,97060.81
2023-07-22T06:00:08.899Z,97070.11
2023-07-22T06:02:34.071Z,97066.39
2023-07-22T06:05:02.270Z,97072.78
2023-07-22T06:07:30.286Z,97070.21
2023-07-22T06:09:58.110Z,97064.88
2023-07-22T06:14:54.895Z,97068.05
2023-07-22T06:17:22.693Z,97070.23
2023-07-22T06:19:50.550Z,97070.66
2023-07-22T06:22:18.038Z,97073.99
2023-07-22T06:24:45.801Z,97061.19
2023-07-22T06:27:13.661Z,97063.00
2023-07-22T06:29:41.160Z,97074.39
2023-07-22T06:32:09.213Z,97080.94
2023-07-22T06:34:36.909Z,97094.91
2023-07-22T06:37:05.100Z,97093.00
2023-07-22T06:39:32.916Z,97099.56
2023-07-22T06:42:00.604Z,97096.11
2023-07-22T06:44:28.507Z,97104.08
2023-07-22T06:46:56.116Z,97113.71
2023-07-22T06:49:23.970Z,97118.91
2023-07-22T06:51:52.594Z,97113.77
2023-07-22T06:54:20.489Z,97110.88
2023-07-22T06:56:48.332Z,97114.64
2023-07-22T06:59:16.051Z,97113.67
2023-07-22T07:01:43.942Z,97110.63
2023-07-22T07:04:11.660Z,97127.87
2023-07-22T07:06:39.414Z,97124.58
2023-07-22T07:09:07.092Z,97125.95
2023-07-22T07:11:35.052Z,97129.41
2023-07-22T07:14:04.162Z,97134.02
2023-07-22T07:16:32.976Z,97125.73
2023-07-22T07:19:02.098Z,97125.73
2023-07-22T07:21:29.658Z,97127.70
2023-07-22T07:23:57.257Z,97127.00
2023-07-22T07:26:25.309Z,97128.97
2023-07-22T07:28:53.156Z,97135.00
2023-07-22T07:31:21.243Z,97140.04
2023-07-22T07:33:49.130Z,97148.39
2023-07-22T07:36:16.909Z,97149.53
2023-07-22T07:38:44.528Z,97150.42
2023-07-22T07:41:13.117Z,97151.87
2023-07-22T07:43:41.894Z,97157.15
2023-07-22T07:46:28.525Z,97157.36
2023-07-22T07:49:01.388Z,97160.25
2023-07-22T07:51:31.876Z,97164.47
2023-07-22T07:54:00.606Z,97171.52
2023-07-22T07:56:29.879Z,97171.88
2023-07-22T07:58:57.850Z,97176.64
2023-07-22T08:01:25.657Z,97171.55
2023-07-22T08:03:53.435Z,97173.27
2023-07-22T08:06:21.312Z,97174.53
2023-07-22T08:08:49.970Z,97172.63
2023-07-22T08:11:17.545Z,97177.48
2023-07-22T08:13:45.467Z,97174.73
2023-07-22T08:16:14.727Z,97171.25
2023-07-22T08:18:42.546Z,97169.88
2023-07-22T08:21:10.755Z,97170.14
2023-07-22T08:23:38.593Z,97174.42
2023-07-22T08:26:06.694Z,97178.73
2023-07-22T08:28:35.714Z,97179.69
2023-07-22T08:31:04.070Z,97177.16
2023-07-22T08:36:03.136Z,97189.75
2023-07-22T08:38:31.003Z,97189.06
2023-07-22T08:41:01.275Z,97184.17
2023-07-22T08:43:30.531Z,97190.77
2023-07-22T08:46:01.830Z,97193.59
2023-07-22T08:48:33.447Z,97196.66
2023-07-22T08:51:09.512Z,97203.27
2023-07-22T08:53:38.405Z,97203.98
2023-07-22T08:56:06.637Z,97197.55
2023-07-22T08:58:35.631Z,97203.22
2023-07-22T09:01:04.072Z,97193.11
2023-07-22T09:03:33.234Z,97200.17
2023-07-22T09:06:02.325Z,97196.96
2023-07-22T09:08:30.463Z,97198.72
2023-07-22T09:10:58.892Z,97202.25
2023-07-22T09:13:28.086Z,97206.17
2023-07-22T09:16:01.197Z,97204.47
2023-07-22T09:18:29.146Z,97202.53
2023-07-22T09:20:56.732Z,97209.52
2023-07-22T09:23:38.316Z,97200.59
2023-07-22T09:26:18.380Z,97194.66
2023-07-22T09:28:57.925Z,97192.06
2023-07-22T09:31:28.888Z,97194.12
2023-07-22T09:34:12.112Z,97204.66
2023-07-22T09:36:58.170Z,97194.97
2023-07-22T09:39:25.684Z,97194.82
2023-07-22T09:41:55.849Z,97193.32
2023-07-22T09:44:24.250Z,97196.24
2023-07-22T09:46:51.969Z,97197.67
2023-07-22T09:49:20.041Z,97200.94
2023-07-22T09:52:00.948Z,97199.86
2023-07-22T09:54:17.275Z,97204.90
2023-07-22T09:56:48.276Z,97205.27
2023-07-22T09:59:23.600Z,97207.77
2023-07-22T10:01:52.756Z,97209.36
2023-07-22T10:04:22.746Z,97215.84
2023-07-22T10:06:51.315Z,97211.13
2023-07-22T10:09:21.526Z,97209.34
2023-07-22T10:11:49.499Z,97208.44
2023-07-22T10:14:18.511Z,97198.52
2023-07-22T10:16:46.264Z,97194.69
2023-07-22T10:19:14.006Z,97198.92
2023-07-22T10:21:41.829Z,97210.45
2023-07-22T10:24:11.012Z,97210.80
2023-07-22T10:26:47.346Z,97205.37
2023-07-22T10:29:11.819Z,97216.50
2023-07-22T10:31:39.545Z,97214.45
2023-07-22T10:34:07.487Z,97218.92
2023-07-22T10:36:37.428Z,97211.75
2023-07-22T10:39:05.563Z,97212.31
2023-07-22T10:41:35.830Z,97217.25
2023-07-22T10:44:03.694Z,97223.59
2023-07-22T10:46:39.436Z,97224.48
2023-07-22T10:49:16.621Z,97228.14
2023-07-22T10:51:52.276Z,97226.77
2023-07-22T10:54:34.987Z,97232.45
2023-07-22T10:57:23.301Z,97221.06
2023-07-22T10:59:52.721Z,97232.48
2023-07-22T11:02:29.266Z,97239.16
2023-07-22T11:04:59.724Z,97239.71
2023-07-22T11:07:36.145Z,97234.94
2023-07-22T11:10:14.401Z,97235.81
2023-07-22T11:12:44.903Z,97234.63
2023-07-22T11:15:18.543Z,97239.77
2023-07-22T11:17:46.536Z,97235.65
2023-07-22T11:20:14.293Z,97241.58
2023-07-22T11:22:44.108Z,97248.36
2023-07-22T11:25:19.613Z,97252.58
2023-07-22T11:27:47.536Z,97249.73
2023-07-22T11:30:16.644Z,97254.50
2023-07-22T11:32:45.239Z,97250.72
2023-07-22T11:35:12.870Z,97255.66
2023-07-22T11:37:40.758Z,97254.42
2023-07-22T11:40:14.195Z,97253.20
2023-07-22T11:42:41.951Z,97248.97
2023-07-22T11:45:10.070Z,97247.94
2023-07-22T11:47:37.621Z,97249.38
2023-07-22T11:50:06.429Z,97250.17
2023-07-22T11:52:34.365Z,97248.02
2023-07-22T11:55:04.045Z,97247.65
2023-07-22T11:57:31.984Z,97245.95
2023-07-22T11:59:59.678Z,97249.53
2023-07-22T12:02:29.615Z,97251.84
2023-07-22T12:05:05.902Z,97250.66
2023-07-22T12:07:37.234Z,97245.36
2023-07-22T12:10:07.756Z,97244.55
2023-07-22T12:12:48.100Z,97253.55
2023-07-22T12:15:24.039Z,97245.73
2023-07-22T12:17:56.291Z,97242.41
2023-07-22T12:20:32.396Z,97236.28
2023-07-22T12:23:00.463Z,97238.62
2023-07-22T12:25:28.466Z,97238.77
2023-07-22T12:27:56.207Z,97254.64
2023-07-22T12:30:24.784Z,97251.30
2023-07-22T12:32:52.722Z,97250.02
2023-07-22T12:35:20.537Z,97247.67
2023-07-22T12:37:48.009Z,97243.84
2023-07-22T12:40:15.803Z,97248.81
2023-07-22T12:42:43.488Z,97244.73
2023-07-22T12:45:11.252Z,97241.07
2023-07-22T12:47:39.140Z,97253.06
2023-07-22T12:50:10.110Z,97253.25
2023-07-22T12:52:38.630Z,97246.55
2023-07-22T12:55:07.201Z,97252.38
2023-07-22T12:57:34.963Z,97251.34
2023-07-22T13:00:05.161Z,97252.01
2023-07-22T13:02:32.931Z,97254.46
2023-07-22T13:05:00.973Z,97255.98
2023-07-22T13:07:29.041Z,97252.28
2023-07-22T13:10:02.270Z,97262.77
2023-07-22T13:12:30.165Z,97262.70
2023-07-22T13:14:57.839Z,97259.86
2023-07-22T13:17:25.625Z,97257.00
2023-07-22T13:19:53.239Z,97250.08
2023-07-22T13:22:21.122Z,97250.96
2023-07-22T13:24:48.994Z,97246.05
2023-07-22T13:27:16.722Z,97239.50
2023-07-22T13:29:44.546Z,97240.17
2023-07-22T13:32:12.125Z,97240.80
2023-07-22T13:34:39.854Z,97237.88
2023-07-22T13:37:07.652Z,97233.10
2023-07-22T13:39:35.728Z,97239.27
2023-07-22T13:42:04.014Z,97240.94
2023-07-22T13:44:31.656Z,97243.22
2023-07-22T13:46:59.332Z,97245.50
2023-07-22T13:49:27.190Z,97239.14
2023-07-22T13:51:54.870Z,97240.99
2023-07-22T13:54:22.268Z,97240.23
2023-07-22T13:56:49.755Z,97243.99
2023-07-22T13:59:17.729Z,97239.34
2023-07-22T14:01:45.103Z,97239.91
2023-07-22T14:04:12.760Z,97242.06
2023-07-22T14:06:40.295Z,97232.52
2023-07-22T14:09:07.999Z,97233.60
2023-07-22T14:11:35.788Z,97227.86
2023-07-22T14:14:03.290Z,97228.43
2023-07-22T14:16:30.817Z,97232.78
2023-07-22T14:18:58.713Z,97227.95
2023-07-22T14:21:26.709Z,97232.28
2023-07-22T14:23:55.757Z,97230.41
2023-07-22T14:26:23.332Z,97224.19
2023-07-22T14:28:51.612Z,97225.53
2023-07-22T14:31:19.647Z,97225.16
2023-07-22T14:33:47.790Z,97222.22
2023-07-22T14:36:15.941Z,97222.48
2023-07-22T14:38:43.643Z,97219.04
2023-07-22T14:41:11.832Z,97221.09
2023-07-22T14:43:39.580Z,97218.19
2023-07-22T14:46:07.169Z,97226.91
2023-07-22T14:48:35.026Z,97227.32
2023-07-22T14:51:02.681Z,97221.73
2023-07-22T14:53:30.101Z,97220.76
2023-07-22T14:55:57.674Z,97218.37
2023-07-22T14:58:25.255Z,97225.81
2023-07-22T15:00:52.952Z,97224.06
2023-07-22T15:03:20.543Z,97222.98
2023-07-22T15:05:48.387Z,97221.72
2023-07-22T15:08:16.148Z,97221.78
2023-07-22T15:10:43.935Z,97216.48
2023-07-22T15:13:11.695Z,97215.88
2023-07-22T15:15:39.108Z,97219.59
2023-07-22T15:18:06.812Z,97216.00
2023-07-22T15:20:36.001Z,97218.95
2023-07-22T15:23:03.671Z,97224.52
2023-07-22T15:25:31.647Z,97223.66
2023-07-22T15:27:59.591Z,97230.14
2023-07-22T15:30:27.222Z,97227.03
2023-07-22T15:32:54.881Z,97228.14
2023-07-22T15:35:24.647Z,97222.92
2023-07-22T15:37:53.629Z,97222.92
2023-07-22T15:40:21.927Z,97231.68
2023-07-22T15:42:50.077Z,97230.45
2023-07-22T15:45:18.006Z,97223.72
2023-07-22T15:47:45.592Z,97227.03
2023-07-22T15:50:13.180Z,97221.28
2023-07-22T15:52:40.605Z,97213.41
2023-07-22T15:55:08.591Z,97217.30
2023-07-22T15:57:36.393Z,97226.60
2023-07-22T16:00:07.351Z,97227.58
2023-07-22T16:02:35.369Z,97224.00
2023-07-22T16:05:04.825Z,97220.13
2023-07-22T16:07:34.817Z,97223.73
2023-07-22T16:10:03.456Z,97229.91
2023-07-22T16:12:30.905Z,97227.64
2023-07-22T16:14:58.442Z,97223.18
2023-07-22T16:17:25.960Z,97224.02
2023-07-22T16:19:53.431Z,97224.70
2023-07-22T16:22:21.025Z,97226.91
2023-07-22T16:24:49.735Z,97216.05
2023-07-22T16:27:17.634Z,97222.30
2023-07-22T16:29:45.263Z,97224.66
2023-07-22T16:32:12.656Z,97225.13
2023-07-22T16:34:40.144Z,97230.28
2023-07-22T16:37:07.698Z,97234.52
2023-07-22T16:39:35.209Z,97237.80
2023-07-22T16:42:02.874Z,97236.17
2023-07-22T16:44:31.184Z,97225.84
2023-07-22T16:46:59.043Z,97230.08
2023-07-22T16:49:29.206Z,97237.69
2023-07-22T16:51:56.838Z,97239.27
2023-07-22T16:54:24.543Z,97236.25
2023-07-22T16:56:52.086Z,97241.67
2023-07-22T16:59:19.731Z,97251.77
2023-07-22T17:01:47.511Z,97243.69
2023-07-22T17:04:15.158Z,97239.90
2023-07-22T17:06:42.667Z,97248.27
2023-07-22T17:09:12.306Z,97243.88
2023-07-22T17:11:40.256Z,97244.41
2023-07-22T17:14:07.831Z,97253.98
2023-07-22T17:16:35.098Z,97257.41
2023-07-22T17:19:02.924Z,97258.72
2023-07-22T17:21:30.940Z,97258.80
2023-07-22T17:23:58.658Z,97262.34
2023-07-22T17:26:26.201Z,97258.52
2023-07-22T17:28:53.689Z,97255.23
2023-07-22T17:31:21.275Z,97254.03
2023-07-22T17:33:48.839Z,97258.69
2023-07-22T17:36:16.270Z,97259.95
2023-07-22T17:38:44.029Z,97259.10
2023-07-22T17:41:12.707Z,97266.92
2023-07-22T17:43:40.418Z,97270.45
2023-07-22T17:46:08.039Z,97269.06
2023-07-22T17:48:35.622Z,97277.12
2023-07-22T17:51:03.326Z,97273.38
2023-07-22T17:53:31.054Z,97276.50
2023-07-22T17:55:59.119Z,97276.64
2023-07-22T17:58:27.578Z,97279.73
2023-07-22T18:00:55.309Z,97280.72
2023-07-22T18:03:23.283Z,97296.84
2023-07-22T18:05:50.804Z,97288.95
2023-07-22T18:08:20.514Z,97278.31
2023-07-22T18:10:48.438Z,97271.23
2023-07-22T18:13:16.224Z,97276.64
2023-07-22T18:15:43.781Z,97283.30
2023-07-22T18:18:11.486Z,97294.64
2023-07-22T18:20:38.989Z,97294.39
2023-07-22T18:23:06.551Z,97295.31
2023-07-22T18:25:36.148Z,97289.73
2023-07-22T18:28:03.986Z,97288.90
2023-07-22T18:30:31.932Z,97288.09
2023-07-22T18:32:59.683Z,97292.52
2023-07-22T18:35:27.314Z,97287.17
2023-07-22T18:37:55.074Z,97285.78
2023-07-22T18:40:22.640Z,97295.11
2023-07-22T18:42:50.347Z,97298.55
2023-07-22T18:45:17.965Z,97303.57
2023-07-22T18:47:45.430Z,97303.31
2023-07-22T18:50:16.066Z,97301.79
2023-07-22T18:52:43.678Z,97295.44
2023-07-22T18:55:11.620Z,97299.80
2023-07-22T18:57:39.653Z,97301.47
2023-07-22T19:00:08.610Z,97311.19
2023-07-22T19:02:36.188Z,97313.64
2023-07-22T19:05:04.159Z,97318.81
2023-07-22T19:07:33.233Z,97315.98
2023-07-22T19:10:00.828Z,97329.78
2023-07-22T19:12:29.434Z,97329.45
2023-07-22T19:14:57.235Z,97333.48
2023-07-22T19:17:26.331Z,97334.55
2023-07-22T19:19:54.082Z,97336.39
2023-07-22T19:22:21.567Z,97336.64
2023-07-22T19:24:49.461Z,97353.71
2023-07-22T19:27:17.130Z,97348.44
2023-07-22T19:29:44.688Z,97334.41
2023-07-22T19:32:12.467Z,97331.52
2023-07-22T19:34:39.963Z,97326.86
2023-07-22T19:37:07.553Z,97333.72
2023-07-22T19:39:35.324Z,97337.27
2023-07-22T19:42:03.508Z,97326.95
2023-07-22T19:44:31.090Z,97322.68
2023-07-22T19:47:00.791Z,97324.84
2023-07-22T19:49:29.575Z,97315.47
2023-07-22T19:51:56.922Z,97315.48
2023-07-22T19:54:26.256Z,97322.30
2023-07-22T19:56:53.844Z,97312.34
2023-07-22T19:59:21.413Z,97320.36
2023-07-22T20:01:48.790Z,97321.54
2023-07-22T20:04:16.309Z,97322.11
2023-07-22T20:06:44.265Z,97317.23
2023-07-22T20:09:11.913Z,97313.14
2023-07-22T20:11:39.746Z,97333.05
2023-07-22T20:14:07.461Z,97336.95
2023-07-22T20:16:35.510Z,97334.63
2023-07-22T20:19:03.070Z,97344.19
2023-07-22T20:21:31.035Z,97346.11
2023-07-22T20:23:58.579Z,97346.91
2023-07-22T20:26:26.037Z,97346.10
2023-07-22T20:28:53.715Z,97347.46
2023-07-22T20:31:21.561Z,97360.52
2023-07-22T20:33:49.127Z,97355.05
2023-07-22T20:36:17.474Z,97365.00
2023-07-22T20:38:45.264Z,97367.90
2023-07-22T20:41:14.383Z,97370.58
2023-07-22T20:43:41.895Z,97372.33
2023-07-22T20:46:09.420Z,97372.49
2023-07-22T20:48:37.091Z,97372.66
2023-07-22T20:51:04.878Z,97371.28
2023-07-22T20:53:34.457Z,97382.39
2023-07-22T20:56:02.588Z,97387.42
2023-07-22T20:58:30.628Z,97391.49
2023-07-22T21:01:01.964Z,97384.84
2023-07-22T21:03:30.024Z,97386.59
2023-07-22T21:05:59.051Z,97384.03
2023-07-22T21:08:28.720Z,97376.42
2023-07-22T21:10:56.654Z,97378.36
2023-07-22T21:13:24.793Z,97366.83
2023-07-22T21:15:52.622Z,97368.95
2023-07-22T21:18:20.133Z,97365.20
2023-07-22T21:20:47.866Z,97368.13
2023-07-22T21:23:15.512Z,97366.94
2023-07-22T21:25:43.157Z,97368.87
2023-07-22T21:28:13.200Z,97372.35
2023-07-22T21:30:40.355Z,97364.31
2023-07-22T21:33:08.910Z,97364.87
2023-07-22T21:35:36.832Z,97361.73
2023-07-22T21:38:04.672Z,97367.39
2023-07-22T21:40:33.605Z,97364.83
2023-07-22T21:43:01.977Z,97363.86
2023-07-22T21:45:29.832Z,97359.14
2023-07-22T21:47:57.673Z,97358.12
2023-07-22T21:50:25.311Z,97358.48
2023-07-22T21:52:53.721Z,97363.91
2023-07-22T21:55:22.211Z,97360.58
2023-07-22T21:57:50.050Z,97360.94
2023-07-22T22:00:17.812Z,97359.94
2023-07-22T22:02:45.526Z,97355.98
2023-07-22T22:05:13.221Z,97360.62
2023-07-22T22:07:41.756Z,97366.47
2023-07-22T22:10:09.733Z,97359.05
2023-07-22T22:12:40.971Z,97348.48
2023-07-22T22:15:10.060Z,97348.67
2023-07-22T22:17:54.361Z,97350.98
2023-07-22T22:20:10.726Z,97352.89
2023-07-22T22:22:39.762Z,97352.70
2023-07-22T22:25:08.490Z,97346.05
2023-07-22T22:27:36.653Z,97350.14
2023-07-22T22:30:05.465Z,97356.17
2023-07-22T22:32:33.269Z,97352.08
2023-07-22T22:35:00.930Z,97348.59
2023-07-22T22:37:28.673Z,97346.02
2023-07-22T22:39:56.712Z,97352.05
2023-07-22T22:42:25.130Z,97345.02
2023-07-22T22:44:52.963Z,97341.33
2023-07-22T22:47:20.651Z,97349.66
2023-07-22T22:49:48.527Z,97345.70
2023-07-22T22:52:15.971Z,97348.33
2023-07-22T22:54:44.674Z,97353.30
2023-07-22T22:57:12.624Z,97345.81
2023-07-22T22:59:40.278Z,97340.87
2023-07-22T23:02:08.113Z,97339.84
2023-07-22T23:04:35.970Z,97343.69
2023-07-22T23:07:04.616Z,97340.53
2023-07-22T23:09:32.663Z,97351.41
2023-07-22T23:12:00.525Z,97353.94
2023-07-22T23:14:28.091Z,97357.05
2023-07-22T23:16:55.858Z,97355.06
2023-07-22T23:19:23.406Z,97361.08
2023-07-22T23:21:51.272Z,97352.69
2023-07-22T23:24:19.026Z,97356.95
2023-07-22T23:26:46.604Z,97366.48
2023-07-22T23:29:14.390Z,97372.89
2023-07-22T23:31:42.368Z,97369.59
2023-07-22T23:34:11.854Z,97375.61
2023-07-22T23:36:39.352Z,97382.37
2023-07-22T23:39:07.043Z,97375.95
2023-07-22T23:41:34.669Z,97381.16
2023-07-22T23:44:03.870Z,97372.42
2023-07-22T23:46:32.372Z,97372.42
2023-07-22T23:48:59.944Z,97365.47
2023-07-22T23:51:28.282Z,97365.47
2023-07-22T23:53:56.237Z,97364.49
2023-07-22T23:56:24.360Z,97359.80
2023-07-22T23:58:52.011Z,97364.41
